Time;durP1;ratioP1;P1;durP2;ratioP2;P2;SDS_P1;SDS_P2;PMS_P1;PMS_P2;Temp;Humidity;BMP_temperature;BMP_pressure;BME280_temperature;BME280_humidity;BME280_pressure;Samples;Min_cycle;Max_cycle;Signal;HPM_P1;HPM_P2
2021/04/12 00:01:03;;;;;;;;;;;;;;;;;;7418996;40;1116;-20
2021/04/12 00:06:27;;;;;;;;;;;;;;;;;;7420017;40;1017;-19
2021/04/12 00:11:54;;;;;;;;;;;;;;;;;;7422684;40;994;-19
2021/04/12 00:17:24;;;;;;;;;;;;;;;;;;7422285;40;1942;-20
2021/04/12 00:23:02;;;;;;;;;;;;;;;;;;7422564;40;1103;-21
2021/04/12 00:28:38;;;;;;;;;;;;;;;;;;7422439;40;1588;-19
2021/04/12 00:34:02;;;;;;;;;;;;;;;;;;7422281;40;1028;-19
2021/04/12 00:39:45;;;;;;;;;;;;;;;;;;7421856;40;1926;-18
2021/04/12 00:45:15;;;;;;;;;;;;;;;;;;7421788;40;1413;-19
2021/04/12 00:50:39;;;;;;;;;;;;;;;;;;7421585;40;1015;-18
2021/04/12 00:56:02;;;;;;;;;;;;;;;;;;7422572;40;1024;-18
2021/04/12 01:01:41;;;;;;;;;;;;;;;;;;7421863;40;1023;-20
2021/04/12 01:07:23;;;;;;;;;;;;;;;;;;7421972;40;1299;-19
2021/04/12 01:12:46;;;;;;;;;;;;;;;;;;7421948;40;1206;-21
2021/04/12 01:18:25;;;;;;;;;;;;;;;;;;7421529;40;1945;-18
2021/04/12 01:24:09;;;;;;;;;;;;;;;;;;7412874;40;981;-20
2021/04/12 01:29:48;;;;;;;;;;;;;;;;;;7421618;40;1128;-20
2021/04/12 01:35:14;;;;;;;;;;;;;;;;;;7421330;40;1608;-19
2021/04/12 01:40:53;;;;;;;;;;;;;;;;;;7421076;40;1994;-18
2021/04/12 01:46:32;;;;;;;;;;;;;;;;;;7421183;40;1125;-17
2021/04/12 01:51:56;;;;;;;;;;;;;;;;;;7421456;40;1092;-19
2021/04/12 01:57:22;;;;;;;;;;;;;;;;;;7421672;40;1935;-20
2021/04/12 02:02:57;;;;;;;;;;;;;;;;;;7421281;40;1081;-24
2021/04/12 02:08:47;;;;;;;;;;;;;;;;;;7421265;40;1061;-19
2021/04/12 02:14:27;;;;;;;;;;;;;;;;;;7411933;40;1154;-20
2021/04/12 02:20:07;;;;;;;;;;;;;;;;;;7421139;40;1885;-20
2021/04/12 02:25:36;;;;;;;;;;;;;;;;;;7412674;40;984;-21
2021/04/12 02:31:23;;;;;;;;;;;;;;;;;;7420003;40;900;-19
2021/04/12 02:36:46;;;;;;;;;;;;;;;;;;7420269;40;1882;-19
2021/04/12 02:42:21;;;;;;;;;;;;;;;;;;7420810;40;1760;-19
2021/04/12 02:47:47;;;;;;;;;;;;;;;;;;7420140;40;972;-20
2021/04/12 02:53:26;;;;;;;;;;;;;;;;;;7420805;40;1093;-20
2021/04/12 02:58:47;;;;;;;;;;;;;;;;;;7420662;40;1943;-18
2021/04/12 03:04:26;;;;;;;;;;;;;;;;;;7420704;40;1028;-19
2021/04/12 03:09:55;;;;;;;;;;;;;;;;;;7420208;40;953;-17
2021/04/12 03:15:33;;;;;;;;;;;;;;;;;;7420469;40;1277;-21
2021/04/12 03:21:12;;;;;;;;;;;;;;;;;;7425206;40;1933;-19
2021/04/12 03:26:42;;;;;;;;;;;;;;;;;;7411013;40;1518;-21
2021/04/12 03:32:17;;;;;;;;;;;;;;;;;;7398856;40;1171;-20
2021/04/12 03:37:58;;;;;;;;;;;;;;;;;;7398852;40;1877;-19
2021/04/12 03:43:31;;;;;;;;;;;;;;;;;;7400978;40;1026;-19
2021/04/12 03:49:10;;;;;;;;;;;;;;;;;;7402054;40;1010;-19
2021/04/12 03:54:31;;;;;;;;;;;;;;;;;;7420385;40;1125;-18
2021/04/12 03:59:51;;;;;;;;;;;;;;;;;;7413679;40;1939;-19
2021/04/12 04:05:18;;;;;;;;;;;;;;;;;;7422556;40;1754;-19
2021/04/12 04:10:57;;;;;;;;;;;;;;;;;;7422433;40;970;-20
2021/04/12 04:16:38;;;;;;;;;;;;;;;;;;7401536;40;1170;-19
2021/04/12 04:22:09;;;;;;;;;;;;;;;;;;7400721;40;968;-18
2021/04/12 04:27:32;;;;;;;;;;;;;;;;;;7401644;40;1135;-20
2021/04/12 04:33:25;;;;;;;;;;;;;;;;;;7401482;40;1149;-18
2021/04/12 04:39:05;;;;;;;;;;;;;;;;;;7401748;40;1888;-18
2021/04/12 04:44:35;;;;;;;;;;;;;;;;;;7400174;40;1145;-20
2021/04/12 04:50:04;;;;;;;;;;;;;;;;;;7400813;40;1308;-19
2021/04/12 04:55:25;;;;;;;;;;;;;;;;;;7421115;40;1219;-29
2021/04/12 05:00:58;;;;;;;;;;;;;;;;;;7421951;40;1978;-19
2021/04/12 05:06:21;;;;;;;;;;;;;;;;;;7421417;40;1834;-19
2021/04/12 05:11:41;;;;;;;;;;;;;;;;;;7421737;40;1202;-20
2021/04/12 05:17:21;;;;;;;;;;;;;;;;;;7421298;40;1890;-18
2021/04/12 05:22:56;;;;;;;;;;;;;;;;;;7421056;40;1150;-19
2021/04/12 05:28:41;;;;;;;;;;;;;;;;;;7421435;40;969;-21
2021/04/12 05:34:04;;;;;;;;;;;;;;;;;;7421821;40;980;-21
2021/04/12 05:40:01;;;;;;;;;;;;;;;;;;7421202;40;1894;-18
2021/04/12 05:45:32;;;;;;;;;;;;;;;;;;7421151;40;1193;-18
2021/04/12 05:51:11;;;;;;;;;;;;;;;;;;7420544;40;1202;-20
2021/04/12 05:56:38;;;;;;;;;;;;;;;;;;7421127;40;1044;-20
2021/04/12 06:02:06;;;;;;;;;;;;;;;;;;7420357;40;980;-20
2021/04/12 06:07:29;;;;;;;;;;;;;;;;;;7420848;40;1226;-18
2021/04/12 06:13:09;;;;;;;;;;;;;;;;;;7412046;40;1145;-18
2021/04/12 06:18:45;;;;;;;;;;;;;;;;;;7426218;40;1879;-20
2021/04/12 06:24:24;;;;;;;;;;;;;;;;;;7420625;40;1180;-18
2021/04/12 06:29:45;;;;;;;;;;;;;;;;;;7418986;40;1107;-19
2021/04/12 06:35:35;;;;;;;;;;;;;;;;;;7420698;40;945;-19
2021/04/12 06:41:14;;;;;;;;;;;;;;;;;;7403907;40;1878;-21
2021/04/12 06:46:37;;;;;;;;;;;;;;;;;;7419964;40;1412;-20
2021/04/12 06:52:04;;;;;;;;;;;;;;;;;;7420233;40;1227;-17
2021/04/12 06:57:24;;;;;;;;;;;;;;;;;;7420290;40;1936;-20
2021/04/12 07:03:04;;;;;;;;;;;;;;;;;;7420420;40;997;-19
2021/04/12 07:08:41;;;;;;;;;;;;;;;;;;7420253;40;1058;-21
2021/04/12 07:14:21;;;;;;;;;;;;;;;;;;7420473;40;1214;-20
2021/04/12 07:19:57;;;;;;;;;;;;;;;;;;7419452;40;1882;-20
2021/04/12 07:25:36;;;;;;;;;;;;;;;;;;7419990;40;1013;-19
2021/04/12 07:30:56;;;;;;;;;;;;;;;;;;7419877;40;1419;-18
2021/04/12 07:36:20;;;;;;;;;;;;;;;;;;7419606;40;1582;-19
2021/04/12 07:41:59;;;;;;;;;;;;;;;;;;7419893;40;1931;-19
2021/04/12 07:47:37;;;;;;;;;;;;;;;;;;7419421;40;923;-17
2021/04/12 07:53:16;;;;;;;;;;;;;;;;;;7419230;40;1523;-18
2021/04/12 07:58:55;;;;;;;;;;;;;;;;;;7418531;40;1967;-18
2021/04/12 08:04:34;;;;;;;;;;;;;;;;;;7418290;40;1232;-19
2021/04/12 08:10:12;;;;;;;;;;;;;;;;;;7418132;40;1020;-18
2021/04/12 08:15:32;;;;;;;;;;;;;;;;;;7418196;40;1289;-19
2021/04/12 08:20:52;;;;;;;;;;;;;;;;;;7417526;40;1958;-20
2021/04/12 08:26:31;;;;;;;;;;;;;;;;;;7417616;40;1002;-18
2021/04/12 08:32:01;;;;;;;;;;;;;;;;;;7420323;40;1192;-19
2021/04/12 08:37:41;;;;;;;;;;;;;;;;;;7426627;40;1948;-20
2021/04/12 08:43:13;;;;;;;;;;;;;;;;;;7426300;40;1040;-19
2021/04/12 08:48:48;;;;;;;;;;;;;;;;;;7418604;40;2733;-20
2021/04/12 08:54:17;;;;;;;;;;;;;;;;;;7411606;40;1420;-19
2021/04/12 08:59:43;;;;;;;;;;;;;;;;;;7420219;40;1882;-19
2021/04/12 09:05:04;;;;;;;;;;;;;;;;;;7420023;40;1896;-21
2021/04/12 09:10:35;;;;;;;;;;;;;;;;;;7412104;40;1160;-20
2021/04/12 09:16:01;;;;;;;;;;;;;;;;;;7421227;40;2031;-21
2021/04/12 09:21:46;;;;;;;;;;;;;;;;;;7419147;40;1890;-20
2021/04/12 09:27:06;;;;;;;;;;;;;;;;;;7421559;40;1004;-20
2021/04/12 09:32:38;;;;;;;;;;;;;;;;;;7419143;40;1035;-19
2021/04/12 09:38:02;;;;;;;;;;;;;;;;;;7425958;40;1939;-19
2021/04/12 09:43:41;;;;;;;;;;;;;;;;;;7420741;40;985;-18
2021/04/12 09:49:01;;;;;;;;;;;;;;;;;;7420229;40;994;-18
2021/04/12 09:54:39;;;;;;;;;;;;;;;;;;7419759;40;1074;-19
2021/04/12 10:00:14;;;;;;;;;;;;;;;;;;7419429;40;1914;-21
2021/04/12 10:05:34;;;;;;;;;;;;;;;;;;7420804;40;983;-20
2021/04/12 10:11:00;;;;;;;;;;;;;;;;;;7419587;40;996;-21
2021/04/12 10:16:26;;;;;;;;;;;;;;;;;;7419419;40;1180;-20
2021/04/12 10:22:02;;;;;;;;;;;;;;;;;;7420538;40;1868;-17
2021/04/12 10:27:27;;;;;;;;;;;;;;;;;;7420849;40;954;-20
2021/04/12 10:32:51;;;;;;;;;;;;;;;;;;7420777;40;988;-20
2021/04/12 10:38:15;;;;;;;;;;;;;;;;;;7419853;40;1956;-20
2021/04/12 10:43:50;;;;;;;;;;;;;;;;;;7420514;40;972;-20
2021/04/12 10:49:15;;;;;;;;;;;;;;;;;;7419814;40;1011;-19
2021/04/12 10:54:36;;;;;;;;;;;;;;;;;;7419893;40;1197;-20
2021/04/12 11:00:28;;;;;;;;;;;;;;;;;;7420206;40;1919;-19
2021/04/12 11:06:01;;;;;;;;;;;;;;;;;;7419666;40;1014;-20
2021/04/12 11:11:36;;;;;;;;;;;;;;;;;;7420295;40;1035;-18
2021/04/12 11:17:05;;;;;;;;;;;;;;;;;;7420310;40;1367;-18
2021/04/12 11:22:25;;;;;;;;;;;;;;;;;;7418865;40;1437;-18
2021/04/12 11:27:58;;;;;;;;;;;;;;;;;;7419258;40;1209;-19
2021/04/12 11:33:37;;;;;;;;;;;;;;;;;;7419710;40;1159;-20
2021/04/12 11:39:19;;;;;;;;;;;;;;;;;;7419849;40;1890;-19
2021/04/12 11:44:45;;;;;;;;;;;;;;;;;;7425267;40;1092;-19
2021/04/12 11:50:13;;;;;;;;;;;;;;;;;;7419744;40;1197;-19
2021/04/12 11:55:37;;;;;;;;;;;;;;;;;;7419338;40;1031;-18
2021/04/12 12:01:17;;;;;;;;;;;;;;;;;;7417892;40;1916;-20
2021/04/12 12:06:56;;;;;;;;;;;;;;;;;;7422836;40;1118;-19
2021/04/12 12:12:35;;;;;;;;;;;;;;;;;;7422571;40;1269;-20
2021/04/12 12:18:14;;;;;;;;;;;;;;;;;;7422569;40;1935;-20
2021/04/12 12:23:37;;;;;;;;;;;;;;;;;;7422364;40;1433;-20
2021/04/12 12:29:01;;;;;;;;;;;;;;;;;;7421659;40;1533;-19
2021/04/12 12:34:28;;;;;;;;;;;;;;;;;;7404183;40;1431;-18
2021/04/12 12:39:50;;;;;;;;;;;;;;;;;;7418319;40;1862;-19
2021/04/12 12:45:29;;;;;;;;;;;;;;;;;;7422444;40;1202;-20
2021/04/12 12:50:52;;;;;;;;;;;;;;;;;;7421764;40;1400;-21
2021/04/12 12:56:28;;;;;;;;;;;;;;;;;;7421697;40;1443;-21
2021/04/12 13:02:13;;;;;;;;;;;;;;;;;;7421934;40;1870;-20
2021/04/12 13:07:35;;;;;;;;;;;;;;;;;;7421614;40;1879;-19
2021/04/12 13:12:56;;;;;;;;;;;;;;;;;;7421562;40;1545;-20
2021/04/12 13:18:16;;;;;;;;;;;;;;;;;;7421553;40;1874;-19
2021/04/12 13:23:37;;;;;;;;;;;;;;;;;;7422074;40;929;-19
2021/04/12 13:28:59;;;;;;;;;;;;;;;;;;7419956;40;1705;-20
2021/04/12 13:34:26;;;;;;;;;;;;;;;;;;7421568;40;1146;-20
2021/04/12 13:39:50;;;;;;;;;;;;;;;;;;7421806;40;1874;-20
2021/04/12 13:45:33;;;;;;;;;;;;;;;;;;7412778;40;1524;-18
2021/04/12 13:50:57;;;;;;;;;;;;;;;;;;7419727;40;1226;-19
2021/04/12 13:56:36;;;;;;;;;;;;;;;;;;7421365;40;1032;-20
2021/04/12 14:01:58;;;;;;;;;;;;;;;;;;7163847;40;10000390;-18
2021/04/12 14:07:38;;;;;;;;;;;;;;;;;;7395167;40;1537;-19
2021/04/12 14:13:13;;;;;;;;;;;;;;;;;;7396960;40;1210;-19
2021/04/12 14:19:02;;;;;;;;;;;;;;;;;;7414851;40;1874;-19
2021/04/12 14:24:42;;;;;;;;;;;;;;;;;;7398799;40;1034;-20
2021/04/12 14:30:02;;;;;;;;;;;;;;;;;;7417677;40;963;-18
2021/04/12 14:35:35;;;;;;;;;;;;;;;;;;7417731;40;1136;-19
2021/04/12 14:40:58;;;;;;;;;;;;;;;;;;7418044;40;1927;-21
2021/04/12 14:46:20;;;;;;;;;;;;;;;;;;7418104;40;971;-19
2021/04/12 14:51:54;;;;;;;;;;;;;;;;;;7417143;40;1272;-20
2021/04/12 14:57:19;;;;;;;;;;;;;;;;;;7417339;40;942;-19
2021/04/12 15:02:42;;;;;;;;;;;;;;;;;;7419598;40;1105;-19
2021/04/12 15:08:08;;;;;;;;;;;;;;;;;;7420089;40;1112;-20
2021/04/12 15:13:31;;;;;;;;;;;;;;;;;;7419826;40;1145;-21
2021/04/12 15:18:58;;;;;;;;;;;;;;;;;;7420393;40;1960;-19
2021/04/12 15:24:22;;;;;;;;;;;;;;;;;;7419918;40;1023;-20
2021/04/12 15:29:45;;;;;;;;;;;;;;;;;;7409761;40;1499;-18
2021/04/12 15:35:14;;;;;;;;;;;;;;;;;;7419376;40;1320;-19
2021/04/12 15:40:47;;;;;;;;;;;;;;;;;;7422507;40;2014;-17
2021/04/12 15:46:16;;;;;;;;;;;;;;;;;;7421802;40;1992;-17
2021/04/12 15:51:49;;;;;;;;;;;;;;;;;;7423363;40;1279;-17
2021/04/12 15:57:13;;;;;;;;;;;;;;;;;;7423102;40;1491;-16
2021/04/12 16:02:39;;;;;;;;;;;;;;;;;;7421725;40;1866;-20
2021/04/12 16:08:16;;;;;;;;;;;;;;;;;;7422545;40;987;-18
2021/04/12 16:13:46;;;;;;;;;;;;;;;;;;7422647;40;1183;-17
2021/04/12 16:19:14;;;;;;;;;;;;;;;;;;7423328;40;1992;-15
2021/04/12 16:24:46;;;;;;;;;;;;;;;;;;7424250;40;1416;-16
2021/04/12 16:30:10;;;;;;;;;;;;;;;;;;7423253;40;1136;-17
2021/04/12 16:35:32;;;;;;;;;;;;;;;;;;7422313;40;992;-17
2021/04/12 16:41:00;;;;;;;;;;;;;;;;;;7423177;40;1882;-16
2021/04/12 16:46:42;;;;;;;;;;;;;;;;;;7428448;40;1139;-16
2021/04/12 16:52:06;;;;;;;;;;;;;;;;;;7421047;40;1038;-17
2021/04/12 16:57:30;;;;;;;;;;;;;;;;;;7421409;40;1424;-17
2021/04/12 17:03:08;;;;;;;;;;;;;;;;;;7421657;40;1466;-16
2021/04/12 17:08:41;;;;;;;;;;;;;;;;;;7421843;40;996;-18
2021/04/12 17:14:14;;;;;;;;;;;;;;;;;;7420425;40;1182;-17
2021/04/12 17:20:00;;;;;;;;;;;;;;;;;;7150565;40;10001577;-18
2021/04/12 17:25:28;;;;;;;;;;;;;;;;;;7397538;40;1101;-17
2021/04/12 17:30:48;;;;;;;;;;;;;;;;;;7413816;40;1568;-18
2021/04/12 17:36:14;;;;;;;;;;;;;;;;;;7398279;40;1217;-17
2021/04/12 17:41:38;;;;;;;;;;;;;;;;;;7414765;40;1933;-19
2021/04/12 17:47:01;;;;;;;;;;;;;;;;;;7418452;40;1109;-19
2021/04/12 17:52:21;;;;;;;;;;;;;;;;;;7417484;40;2106;-19
2021/04/12 17:57:46;;;;;;;;;;;;;;;;;;7417712;40;973;-17
2021/04/12 18:03:06;;;;;;;;;;;;;;;;;;7416983;40;1123;-18
2021/04/12 18:08:46;;;;;;;;;;;;;;;;;;7416289;40;1700;-17
2021/04/12 18:14:28;;;;;;;;;;;;;;;;;;7416285;40;1175;-16
2021/04/12 18:20:12;;;;;;;;;;;;;;;;;;7400850;40;1980;-17
2021/04/12 18:25:35;;;;;;;;;;;;;;;;;;7404871;40;1543;-18
2021/04/12 18:31:07;;;;;;;;;;;;;;;;;;7417883;40;1807;-19
2021/04/12 18:36:37;;;;;;;;;;;;;;;;;;7417798;40;1034;-19
2021/04/12 18:42:15;;;;;;;;;;;;;;;;;;7417701;40;1959;-17
2021/04/12 18:47:50;;;;;;;;;;;;;;;;;;7417917;40;1027;-20
2021/04/12 18:53:22;;;;;;;;;;;;;;;;;;7417401;40;1093;-19
2021/04/12 18:58:48;;;;;;;;;;;;;;;;;;7417818;40;1898;-19
2021/04/12 19:04:33;;;;;;;;;;;;;;;;;;7416186;40;1035;-20
2021/04/12 19:10:07;;;;;;;;;;;;;;;;;;7417388;40;1242;-19
2021/04/12 19:15:37;;;;;;;;;;;;;;;;;;7411885;40;2400;-17
2021/04/12 19:21:02;;;;;;;;;;;;;;;;;;7396338;40;1882;-20
2021/04/12 19:26:22;;;;;;;;;;;;;;;;;;7396250;40;1599;-19
2021/04/12 19:32:07;;;;;;;;;;;;;;;;;;7415605;40;1095;-19
2021/04/12 19:37:37;;;;;;;;;;;;;;;;;;7407608;40;1515;-19
2021/04/12 19:43:00;;;;;;;;;;;;;;;;;;7409040;40;1883;-19
2021/04/12 19:48:21;;;;;;;;;;;;;;;;;;7404415;40;1034;-18
2021/04/12 19:53:57;;;;;;;;;;;;;;;;;;6768398;40;10000902;-20
2021/04/12 19:59:32;;;;;;;;;;;;;;;;;;7378785;40;2032;-20
2021/04/12 20:05:09;;;;;;;;;;;;;;;;;;7374740;40;1113;-20
2021/04/12 20:10:33;;;;;;;;;;;;;;;;;;7377971;40;1127;-20
2021/04/12 20:16:02;;;;;;;;;;;;;;;;;;7377397;40;1419;-20
2021/04/12 20:21:23;;;;;;;;;;;;;;;;;;7398402;40;1933;-19
2021/04/12 20:26:43;;;;;;;;;;;;;;;;;;7401290;40;1433;-18
2021/04/12 20:32:06;;;;;;;;;;;;;;;;;;7401928;40;1134;-19
2021/04/12 20:37:27;;;;;;;;;;;;;;;;;;7401843;40;980;-18
2021/04/12 20:43:10;;;;;;;;;;;;;;;;;;7400837;40;1931;-18
2021/04/12 20:48:33;;;;;;;;;;;;;;;;;;7402074;40;1532;-13
2021/04/12 20:53:57;;;;;;;;;;;;;;;;;;7417605;40;1140;-14
2021/04/12 20:59:17;;;;;;;;;;;;;;;;;;7406793;40;1967;-13
2021/04/12 21:04:38;;;;;;;;;;;;;;;;;;7401094;40;964;-13
2021/04/12 21:10:17;;;;;;;;;;;;;;;;;;7400243;40;1317;-13
2021/04/12 21:15:46;;;;;;;;;;;;;;;;;;7400066;40;1299;-16
2021/04/12 21:21:33;;;;;;;;;;;;;;;;;;7400638;40;1939;-13
2021/04/12 21:27:02;;;;;;;;;;;;;;;;;;7413013;40;1021;-13
2021/04/12 21:32:24;;;;;;;;;;;;;;;;;;7412272;40;2106;-14
2021/04/12 21:37:45;;;;;;;;;;;;;;;;;;7400764;40;1098;-13
2021/04/12 21:43:20;;;;;;;;;;;;;;;;;;7400328;40;1874;-12
2021/04/12 21:48:56;;;;;;;;;;;;;;;;;;7400369;40;1074;-13
2021/04/12 21:54:25;;;;;;;;;;;;;;;;;;7400392;40;1004;-13
2021/04/12 21:59:55;;;;;;;;;;;;;;;;;;6780069;40;10001033;-11
2021/04/12 22:05:31;;;;;;;;;;;;;;;;;;6113811;40;10000968;-11
2021/04/12 22:10:59;;;;;;;;;;;;;;;;;;7378067;40;1106;-13
2021/04/12 22:17:00;;;;;;;;;;;;;;;;;;6457974;40;10000946;-13
2021/04/12 22:22:38;;;;;;;;;;;;;;;;;;7379765;40;1890;-12
2021/04/12 22:28:00;;;;;;;;;;;;;;;;;;7381077;40;1103;-12
2021/04/12 22:40:17;;;;;;;;;;;;;;;;;;7379436;40;1948;-10
2021/04/12 22:45:05;;;;;;;;;;;;;;;;;;7380526;40;1227;-12
2021/04/12 22:50:44;;;;;;;;;;;;;;;;;;7378098;40;1542;-14
2021/04/12 22:56:22;;;;;;;;;;;;;;;;;;7379433;40;1031;-13
2021/04/12 23:02:03;;;;;;;;;;;;;;;;;;7404987;40;1931;-14
2021/04/12 23:07:40;;;;;;;;;;;;;;;;;;7399714;40;998;-13
2021/04/12 23:13:01;;;;;;;;;;;;;;;;;;7399248;40;1155;-12
2021/04/12 23:18:23;;;;;;;;;;;;;;;;;;7390875;40;1039;-13
2021/04/12 23:23:45;;;;;;;;;;;;;;;;;;7399175;40;978;-13
2021/04/12 23:29:05;;;;;;;;;;;;;;;;;;7399523;40;975;-13
2021/04/12 23:34:35;;;;;;;;;;;;;;;;;;7399268;40;1094;-13
2021/04/12 23:40:01;;;;;;;;;;;;;;;;;;7398994;40;1878;-12
2021/04/12 23:45:24;;;;;;;;;;;;;;;;;;7398969;40;1192;-12
2021/04/12 23:50:46;;;;;;;;;;;;;;;;;;7398969;40;1104;-13
2021/04/12 23:56:06;;;;;;;;;;;;;;;;;;7398223;40;1337;-11
